Arklow Mill — EIJD9 — position and weather

sailwx.info

Track history (hours):
 
Tides and Currents Weather Stations Pressure Air Temp Water Temp Dewpoint Dewpoint Depression Visibility Wind Speed Wind Dir Waves Ship Positions

Arklow Mill

Last reported at 2016-Jul-26 21:33 UTC. Time now 2016-Jul-26 21:50 UTC.
Position N 51°30' W 002°43'.

Length 137 m; draft 8.4 m.

Type: Ship. MMSI: 250002022.

Date/timePositionNaut miles runAvg speedWind from/ knotsBaromVisibWave heightAir tempDewpointWater temp
2016-Jul-26 21:33N 51°30' W 002°43'0 0.0
2016-Jul-26 20:33N 51°30' W 002°43'0 0.0
2016-Jul-26 19:33N 51°30' W 002°43'0 0.0
2016-Jul-26 18:33N 51°30' W 002°43'0 0.0
2016-Jul-26 17:33N 51°30' W 002°43'0 0.0
2016-Jul-26 16:33N 51°30' W 002°43'0 0.0
2016-Jul-26 15:33N 51°30' W 002°43'0 0.0
2016-Jul-26 14:33N 51°30' W 002°43'0 0.0
2016-Jul-26 13:30N 51°30' W 002°43'0 0.0
2016-Jul-26 12:33N 51°30' W 002°43'0 0.0
2016-Jul-26 11:33N 51°30' W 002°43'0 0.0
2016-Jul-26 10:30N 51°30' W 002°43'0 0.0
2016-Jul-26 09:33N 51°30' W 002°43'0 0.0
2016-Jul-26 08:33N 51°30' W 002°43'0 0.0
2016-Jul-26 07:33N 51°30' W 002°43'0 0.0
2016-Jul-26 06:33N 51°30' W 002°43'0 0.0
2016-Jul-26 05:33N 51°30' W 002°43'0 0.0
2016-Jul-26 04:33N 51°30' W 002°43'0 0.0
2016-Jul-26 03:33N 51°30' W 002°43'0 0.0
2016-Jul-26 02:30N 51°30' W 002°43'0 0.0
2016-Jul-26 01:33N 51°30' W 002°43'0 0.0
2016-Jul-26 00:33N 51°30' W 002°43'0 0.0
2016-Jul-25 23:33N 51°30' W 002°43'1 0.8
2016-Jul-25 22:34N 51°30' W 002°44'10 9.8
2016-Jul-25 21:34N 51°27' W 002°59'1211.7
2016-Jul-25 20:33N 51°21' W 003°15'1110.8
2016-Jul-25 19:32N 51°21' W 003°33'17 0.7
2016-Jul-24 20:32N 51°16' W 003°58'1414.5
2016-Jul-24 19:33N 51°13' W 004°20'1515.1
2016-Jul-24 18:33N 51°04' W 004°40'1414.2
2016-Jul-24 17:33N 50°54' W 004°56'1313.3
2016-Jul-24 16:33N 50°45' W 005°11'1312.7
2016-Jul-24 15:33N 50°36' W 005°26'1212.1
2016-Jul-24 14:33N 50°28' W 005°40'1111.2
2016-Jul-24 13:33N 50°20' W 005°52'1211.6
2016-Jul-24 12:33N 50°08' W 005°52'10 9.1
2016-Jul-24 11:24N 49°59' W 005°44'1011.4
2016-Jul-24 10:32N 49°57' W 005°29'1111.4
2016-Jul-24 09:33N 49°55' W 005°12'1211.6
2016-Jul-24 08:31N 49°57' W 004°54'1111.7
2016-Jul-24 07:33N 49°59' W 004°37'1212.2
2016-Jul-24 06:33N 50°01' W 004°18'1312.7
2016-Jul-24 05:33N 50°03' W 003°58'1414.2
2016-Jul-24 04:34N 50°05' W 003°36'1514.6
2016-Jul-24 03:34N 50°08' W 003°14'1414.2
2016-Jul-24 02:33N 50°12' W 002°53'1613.4
2016-Jul-24 01:20N 50°15' W 002°28'2410.8
2016-Jul-23 23:09N 50°18' W 001°51'16 9.3
2016-Jul-23 21:28N 50°22' W 001°27'9 9.9
2016-Jul-23 20:33N 50°24' W 001°13'1111.3
2016-Jul-23 19:33N 50°26' W 000°56'1413.7
2016-Jul-23 18:33N 50°28' W 000°35'1414.1
2016-Jul-23 17:33N 50°31' W 000°13'1413.9
2016-Jul-23 16:33N 50°34' E 000°08'1413.5
2016-Jul-23 15:33N 50°37' E 000°29'2411.9
2016-Jul-23 13:32N 50°50' E 001°01'1211.8
2016-Jul-23 12:33N 50°58' E 001°15'1313.4
2016-Jul-23 11:34N 51°06' E 001°32'1615.8
2016-Jul-23 10:33N 51°17' E 001°49'1615.8
2016-Jul-23 09:33N 51°31' E 002°03'1515.0
2016-Jul-23 08:33N 51°42' E 002°18'1413.9
2016-Jul-23 07:33N 51°53' E 002°33'1312.9
2016-Jul-23 06:32N 52°03' E 002°47'3611.9
2016-Jul-23 03:31N 52°32' E 003°22'3113.0
2016-Jul-23 01:09N 52°55' E 003°55'913.8
2016-Jul-23 00:29N 53°01' E 004°06'1413.7
2016-Jul-22 23:29N 53°10' E 004°24'1313.4
2016-Jul-22 22:30N 53°22' E 004°34'1211.9
2016-Jul-22 21:31N 53°30' E 004°47'1111.7
2016-Jul-22 20:33N 53°35' E 005°05'1211.7
2016-Jul-22 19:33N 53°38' E 005°24'1212.4
2016-Jul-22 18:33N 53°42' E 005°43'1413.6
2016-Jul-22 17:33N 53°47' E 006°05'1414.4
2016-Jul-22 16:33N 53°51' E 006°29'1414.4
2016-Jul-22 15:33N 53°55' E 006°52'1413.8
2016-Jul-22 14:33N 53°58' E 007°15'1313.0
2016-Jul-22 13:33N 54°01' E 007°37'1312.9
2016-Jul-22 12:33N 54°03' E 007°58'6 6.3
2016-Jul-22 11:31N 54°03' E 008°09'0 0.0
2016-Jul-22 10:31N 54°03' E 008°09'0 0.0
2016-Jul-22 09:31N 54°03' E 008°09'0 0.0
2016-Jul-22 08:31N 54°03' E 008°09'0 0.1
2016-Jul-22 07:31N 54°03' E 008°09'0 0.0
2016-Jul-22 04:31N 54°03' E 008°09'0 0.0
2016-Jul-22 03:31N 54°03' E 008°09'0 0.0
2016-Jul-22 02:31N 54°03' E 008°09'0 0.0
2016-Jul-22 01:28N 54°03' E 008°09'0 0.1
2016-Jul-22 00:31N 54°03' E 008°09'0 0.0
2016-Jul-21 23:31N 54°03' E 008°09'0 0.0
2016-Jul-21 22:31N 54°03' E 008°09'0 0.0
2016-Jul-21 21:31N 54°03' E 008°09'0 0.0
2016-Jul-21 20:31N 54°03' E 008°09'0 0.1
2016-Jul-21 19:31N 54°03' E 008°09'0 0.1
2016-Jul-21 18:31N 54°03' E 008°09'0 0.0
2016-Jul-21 17:31N 54°03' E 008°09'0 0.0
2016-Jul-21 16:31N 54°03' E 008°09'0 0.0
2016-Jul-21 15:31N 54°03' E 008°09'0 0.0
2016-Jul-21 14:31N 54°03' E 008°09'0 0.0
2016-Jul-21 13:31N 54°03' E 008°09'0 0.1
2016-Jul-21 12:31N 54°03' E 008°09'0 0.0
2016-Jul-21 11:31N 54°03' E 008°09'0 0.0
2016-Jul-21 10:31N 54°03' E 008°09'0 0.0
2016-Jul-21 09:31N 54°03' E 008°09'0 0.0
2016-Jul-21 08:31N 54°03' E 008°09'0 0.0
2016-Jul-21 07:31N 54°03' E 008°09'0 0.1
2016-Jul-21 06:28N 54°03' E 008°09'0 0.0
2016-Jul-21 05:31N 54°03' E 008°09'0 0.0
2016-Jul-21 04:31N 54°03' E 008°09'0 0.0
2016-Jul-21 03:31N 54°03' E 008°09'0 0.0
2016-Jul-21 02:31N 54°03' E 008°09'0 0.1
2016-Jul-21 01:33N 54°03' E 008°09'0 0.0
2016-Jul-21 00:33N 54°03' E 008°09'0 0.1
2016-Jul-20 23:33N 54°03' E 008°09'0 0.1
2016-Jul-20 22:33N 54°03' E 008°09'0 0.1
2016-Jul-20 21:33N 54°03' E 008°09'0 0.0
2016-Jul-20 20:33N 54°03' E 008°09'0 0.2
2016-Jul-20 19:33N 54°03' E 008°09'0 0.0
2016-Jul-20 18:33N 54°03' E 008°09'0 0.0
2016-Jul-20 17:33N 54°03' E 008°09'0 0.0
2016-Jul-20 16:33N 54°03' E 008°09'0 0.0
2016-Jul-20 15:33N 54°03' E 008°09'0 0.0
2016-Jul-20 14:33N 54°03' E 008°09'0 0.0
2016-Jul-20 13:33N 54°03' E 008°09'0 0.0
2016-Jul-20 12:33N 54°03' E 008°09'0 0.0
2016-Jul-20 11:33N 54°03' E 008°09'0 0.1
2016-Jul-20 10:32N 54°03' E 008°09'0 0.0
2016-Jul-20 09:34N 54°03' E 008°09'0 0.0
2016-Jul-20 08:33N 54°03' E 008°09'0 0.1
2016-Jul-20 07:33N 54°03' E 008°09'0 0.2
2016-Jul-20 06:34N 54°03' E 008°09'1312.9
2016-Jul-20 05:34N 53°59' E 008°29'1414.5
2016-Jul-20 04:34N 53°50' E 008°50'1414.1
2016-Jul-20 03:34N 53°53' E 009°13'1212.4
2016-Jul-20 02:34N 53°44' E 009°27'1110.7
2016-Jul-20 01:34N 53°35' E 009°38'9 9.3
2016-Jul-20 00:34N 53°32' E 009°53'1 1.1
2016-Jul-19 23:32N 53°31' E 009°53'0 0.0
2016-Jul-19 22:32N 53°31' E 009°53'0 0.0
2016-Jul-19 21:32N 53°31' E 009°53'0 0.0
2016-Jul-19 20:32N 53°31' E 009°53'0 0.0
2016-Jul-19 19:32N 53°31' E 009°53'0 0.0
2016-Jul-19 18:32N 53°31' E 009°53'0 0.0
2016-Jul-19 17:32N 53°31' E 009°53'0 0.0
2016-Jul-19 16:32N 53°31' E 009°53'0 0.0
2016-Jul-19 15:32N 53°31' E 009°53'0 0.0
2016-Jul-19 14:32N 53°31' E 009°53'0 0.0
2016-Jul-19 13:32N 53°31' E 009°53'0 0.0
2016-Jul-19 12:32N 53°31' E 009°53'0 0.0
2016-Jul-19 11:32N 53°31' E 009°53'0 0.0
2016-Jul-19 10:32N 53°31' E 009°53'0 0.0
2016-Jul-19 09:32N 53°31' E 009°53'0 0.0
2016-Jul-19 08:32N 53°31' E 009°53'0 0.0
2016-Jul-19 07:32N 53°31' E 009°53'0 0.0
2016-Jul-19 04:32N 53°31' E 009°53'0 0.0
2016-Jul-19 03:32N 53°31' E 009°53'0 0.0
2016-Jul-19 02:32N 53°31' E 009°53'0 0.0
2016-Jul-19 01:32N 53°31' E 009°53'0 0.0
2016-Jul-19 00:32N 53°31' E 009°53'0 0.0
2016-Jul-18 23:32N 53°31' E 009°53'0 0.0
2016-Jul-18 22:32N 53°31' E 009°53'0 0.0
2016-Jul-18 21:32N 53°31' E 009°53'0 0.0
2016-Jul-18 20:32N 53°31' E 009°53'0 0.0
2016-Jul-18 19:32N 53°31' E 009°53'0 0.0
2016-Jul-18 18:32N 53°31' E 009°53'0 0.0
2016-Jul-18 17:32N 53°31' E 009°53'0 0.0
2016-Jul-18 16:32N 53°31' E 009°53'0 0.0
2016-Jul-18 15:32N 53°31' E 009°53'0 0.0
2016-Jul-18 14:32N 53°31' E 009°53'0 0.0
2016-Jul-18 13:32N 53°31' E 009°53'0 0.0
2016-Jul-18 12:32N 53°31' E 009°53'0 0.0
2016-Jul-18 11:32N 53°31' E 009°53'0 0.0
2016-Jul-18 10:32N 53°31' E 009°53'0 0.0
2016-Jul-18 09:32N 53°31' E 009°53'0 0.0
2016-Jul-18 08:32N 53°31' E 009°53'0 0.0
2016-Jul-18 07:32N 53°31' E 009°53'0 0.0
2016-Jul-18 06:32N 53°31' E 009°53'0 0.0
2016-Jul-18 05:32N 53°31' E 009°53'0 0.0
2016-Jul-18 04:32N 53°31' E 009°53'0 0.0
2016-Jul-18 03:32N 53°31' E 009°53'0 0.0
2016-Jul-18 02:32N 53°31' E 009°53'0 0.0
2016-Jul-18 01:32N 53°31' E 009°53'0 0.0
2016-Jul-18 00:32N 53°31' E 009°53'0 0.0
2016-Jul-17 23:32N 53°31' E 009°53'0 0.0
2016-Jul-17 22:32N 53°31' E 009°53'0 0.0
2016-Jul-17 21:32N 53°31' E 009°54'0 0.0
2016-Jul-17 20:33N 53°31' E 009°53'5 5.2
2016-Jul-17 19:33N 53°34' E 009°46'1010.1
2016-Jul-17 18:33N 53°39' E 009°31'1010.1
2016-Jul-17 17:34N 53°48' E 009°23'9 9.1
2016-Jul-17 16:33N 53°53' E 009°10'8 8.3
2016-Jul-17 15:33N 53°51' E 008°56'8 8.2
2016-Jul-17 14:33N 53°52' E 008°43'9 8.6
2016-Jul-17 13:33N 53°58' E 008°32'1010.4
2016-Jul-17 12:33N 53°60' E 008°14'1111.4
2016-Jul-17 11:33N 53°58' E 007°55'1212.0
2016-Jul-17 10:33N 53°55' E 007°35'1212.1
2016-Jul-17 09:32N 53°52' E 007°15'1212.0
2016-Jul-17 08:33N 53°49' E 006°56'1212.3
2016-Jul-17 07:33N 53°46' E 006°35'1414.3
2016-Jul-17 06:34N 53°42' E 006°12'2613.2
2016-Jul-17 04:34N 53°34' E 005°30'1413.8
2016-Jul-17 03:33N 53°30' E 005°08'1514.3
2016-Jul-17 02:32N 53°24' E 004°45'1513.6
2016-Jul-17 01:28N 53°11' E 004°34'1213.2
2016-Jul-17 00:33N 53°01' E 004°24'1312.8
2016-Jul-16 23:32N 52°50' E 004°13'1212.4
2016-Jul-16 22:33N 52°39' E 004°03'1211.8
2016-Jul-16 21:34N 52°28' E 003°55'  
Track history (hours):
 
Tides and Currents Weather Stations Pressure Air Temp Water Temp Dewpoint Dewpoint Depression Visibility Wind Speed Wind Dir Waves Ship Positions

Arklow Mill

Last reported at 2016-Jul-26 21:33 UTC. Time now 2016-Jul-26 21:50 UTC.
Position N 51°30' W 002°43'.

Length 137 m; draft 8.4 m.

Type: Ship. MMSI: 250002022.

Date/timePositionNaut miles runAvg speedWind from/ knotsBaromVisibWave heightAir tempDewpointWater temp
2016-Jul-26 21:33N 51°30' W 002°43'0 0.0
2016-Jul-26 20:33N 51°30' W 002°43'0 0.0
2016-Jul-26 19:33N 51°30' W 002°43'0 0.0
2016-Jul-26 18:33N 51°30' W 002°43'0 0.0
2016-Jul-26 17:33N 51°30' W 002°43'0 0.0
2016-Jul-26 16:33N 51°30' W 002°43'0 0.0
2016-Jul-26 15:33N 51°30' W 002°43'0 0.0
2016-Jul-26 14:33N 51°30' W 002°43'0 0.0
2016-Jul-26 13:30N 51°30' W 002°43'0 0.0
2016-Jul-26 12:33N 51°30' W 002°43'0 0.0
2016-Jul-26 11:33N 51°30' W 002°43'0 0.0
2016-Jul-26 10:30N 51°30' W 002°43'0 0.0
2016-Jul-26 09:33N 51°30' W 002°43'0 0.0
2016-Jul-26 08:33N 51°30' W 002°43'0 0.0
2016-Jul-26 07:33N 51°30' W 002°43'0 0.0
2016-Jul-26 06:33N 51°30' W 002°43'0 0.0
2016-Jul-26 05:33N 51°30' W 002°43'0 0.0
2016-Jul-26 04:33N 51°30' W 002°43'0 0.0
2016-Jul-26 03:33N 51°30' W 002°43'0 0.0
2016-Jul-26 02:30N 51°30' W 002°43'0 0.0
2016-Jul-26 01:33N 51°30' W 002°43'0 0.0
2016-Jul-26 00:33N 51°30' W 002°43'0 0.0
2016-Jul-25 23:33N 51°30' W 002°43'1 0.8
2016-Jul-25 22:34N 51°30' W 002°44'10 9.8
2016-Jul-25 21:34N 51°27' W 002°59'1211.7
2016-Jul-25 20:33N 51°21' W 003°15'1110.8
2016-Jul-25 19:32N 51°21' W 003°33'17 0.7
2016-Jul-24 20:32N 51°16' W 003°58'1414.5
2016-Jul-24 19:33N 51°13' W 004°20'1515.1
2016-Jul-24 18:33N 51°04' W 004°40'1414.2
2016-Jul-24 17:33N 50°54' W 004°56'1313.3
2016-Jul-24 16:33N 50°45' W 005°11'1312.7
2016-Jul-24 15:33N 50°36' W 005°26'1212.1
2016-Jul-24 14:33N 50°28' W 005°40'1111.2
2016-Jul-24 13:33N 50°20' W 005°52'1211.6
2016-Jul-24 12:33N 50°08' W 005°52'10 9.1
2016-Jul-24 11:24N 49°59' W 005°44'1011.4
2016-Jul-24 10:32N 49°57' W 005°29'1111.4
2016-Jul-24 09:33N 49°55' W 005°12'1211.6
2016-Jul-24 08:31N 49°57' W 004°54'1111.7
2016-Jul-24 07:33N 49°59' W 004°37'1212.2
2016-Jul-24 06:33N 50°01' W 004°18'1312.7
2016-Jul-24 05:33N 50°03' W 003°58'1414.2
2016-Jul-24 04:34N 50°05' W 003°36'1514.6
2016-Jul-24 03:34N 50°08' W 003°14'1414.2
2016-Jul-24 02:33N 50°12' W 002°53'1613.4
2016-Jul-24 01:20N 50°15' W 002°28'2410.8
2016-Jul-23 23:09N 50°18' W 001°51'16 9.3
2016-Jul-23 21:28N 50°22' W 001°27'9 9.9
2016-Jul-23 20:33N 50°24' W 001°13'1111.3
2016-Jul-23 19:33N 50°26' W 000°56'1413.7
2016-Jul-23 18:33N 50°28' W 000°35'1414.1
2016-Jul-23 17:33N 50°31' W 000°13'1413.9
2016-Jul-23 16:33N 50°34' E 000°08'1413.5
2016-Jul-23 15:33N 50°37' E 000°29'2411.9
2016-Jul-23 13:32N 50°50' E 001°01'1211.8
2016-Jul-23 12:33N 50°58' E 001°15'1313.4
2016-Jul-23 11:34N 51°06' E 001°32'1615.8
2016-Jul-23 10:33N 51°17' E 001°49'1615.8
2016-Jul-23 09:33N 51°31' E 002°03'1515.0
2016-Jul-23 08:33N 51°42' E 002°18'1413.9
2016-Jul-23 07:33N 51°53' E 002°33'1312.9
2016-Jul-23 06:32N 52°03' E 002°47'3611.9
2016-Jul-23 03:31N 52°32' E 003°22'3113.0
2016-Jul-23 01:09N 52°55' E 003°55'913.8
2016-Jul-23 00:29N 53°01' E 004°06'1413.7
2016-Jul-22 23:29N 53°10' E 004°24'1313.4
2016-Jul-22 22:30N 53°22' E 004°34'1211.9
2016-Jul-22 21:31N 53°30' E 004°47'1111.7
2016-Jul-22 20:33N 53°35' E 005°05'1211.7
2016-Jul-22 19:33N 53°38' E 005°24'1212.4
2016-Jul-22 18:33N 53°42' E 005°43'1413.6
2016-Jul-22 17:33N 53°47' E 006°05'1414.4
2016-Jul-22 16:33N 53°51' E 006°29'1414.4
2016-Jul-22 15:33N 53°55' E 006°52'1413.8
2016-Jul-22 14:33N 53°58' E 007°15'1313.0
2016-Jul-22 13:33N 54°01' E 007°37'1312.9
2016-Jul-22 12:33N 54°03' E 007°58'6 6.3
2016-Jul-22 11:31N 54°03' E 008°09'0 0.0
2016-Jul-22 10:31N 54°03' E 008°09'0 0.0
2016-Jul-22 09:31N 54°03' E 008°09'0 0.0
2016-Jul-22 08:31N 54°03' E 008°09'0 0.1
2016-Jul-22 07:31N 54°03' E 008°09'0 0.0
2016-Jul-22 04:31N 54°03' E 008°09'0 0.0
2016-Jul-22 03:31N 54°03' E 008°09'0 0.0
2016-Jul-22 02:31N 54°03' E 008°09'0 0.0
2016-Jul-22 01:28N 54°03' E 008°09'0 0.1
2016-Jul-22 00:31N 54°03' E 008°09'0 0.0
2016-Jul-21 23:31N 54°03' E 008°09'0 0.0
2016-Jul-21 22:31N 54°03' E 008°09'0 0.0
2016-Jul-21 21:31N 54°03' E 008°09'0 0.0
2016-Jul-21 20:31N 54°03' E 008°09'0 0.1
2016-Jul-21 19:31N 54°03' E 008°09'0 0.1
2016-Jul-21 18:31N 54°03' E 008°09'0 0.0
2016-Jul-21 17:31N 54°03' E 008°09'0 0.0
2016-Jul-21 16:31N 54°03' E 008°09'0 0.0
2016-Jul-21 15:31N 54°03' E 008°09'0 0.0
2016-Jul-21 14:31N 54°03' E 008°09'0 0.0
2016-Jul-21 13:31N 54°03' E 008°09'0 0.1
2016-Jul-21 12:31N 54°03' E 008°09'0 0.0
2016-Jul-21 11:31N 54°03' E 008°09'0 0.0
2016-Jul-21 10:31N 54°03' E 008°09'0 0.0
2016-Jul-21 09:31N 54°03' E 008°09'0 0.0
2016-Jul-21 08:31N 54°03' E 008°09'0 0.0
2016-Jul-21 07:31N 54°03' E 008°09'0 0.1
2016-Jul-21 06:28N 54°03' E 008°09'0 0.0
2016-Jul-21 05:31N 54°03' E 008°09'0 0.0
2016-Jul-21 04:31N 54°03' E 008°09'0 0.0
2016-Jul-21 03:31N 54°03' E 008°09'0 0.0
2016-Jul-21 02:31N 54°03' E 008°09'0 0.1
2016-Jul-21 01:33N 54°03' E 008°09'0 0.0
2016-Jul-21 00:33N 54°03' E 008°09'0 0.1
2016-Jul-20 23:33N 54°03' E 008°09'0 0.1
2016-Jul-20 22:33N 54°03' E 008°09'0 0.1
2016-Jul-20 21:33N 54°03' E 008°09'0 0.0
2016-Jul-20 20:33N 54°03' E 008°09'0 0.2
2016-Jul-20 19:33N 54°03' E 008°09'0 0.0
2016-Jul-20 18:33N 54°03' E 008°09'0 0.0
2016-Jul-20 17:33N 54°03' E 008°09'0 0.0
2016-Jul-20 16:33N 54°03' E 008°09'0 0.0
2016-Jul-20 15:33N 54°03' E 008°09'0 0.0
2016-Jul-20 14:33N 54°03' E 008°09'0 0.0
2016-Jul-20 13:33N 54°03' E 008°09'0 0.0
2016-Jul-20 12:33N 54°03' E 008°09'0 0.0
2016-Jul-20 11:33N 54°03' E 008°09'0 0.1
2016-Jul-20 10:32N 54°03' E 008°09'0 0.0
2016-Jul-20 09:34N 54°03' E 008°09'0 0.0
2016-Jul-20 08:33N 54°03' E 008°09'0 0.1
2016-Jul-20 07:33N 54°03' E 008°09'0 0.2
2016-Jul-20 06:34N 54°03' E 008°09'1312.9
2016-Jul-20 05:34N 53°59' E 008°29'1414.5
2016-Jul-20 04:34N 53°50' E 008°50'1414.1
2016-Jul-20 03:34N 53°53' E 009°13'1212.4
2016-Jul-20 02:34N 53°44' E 009°27'1110.7
2016-Jul-20 01:34N 53°35' E 009°38'9 9.3
2016-Jul-20 00:34N 53°32' E 009°53'1 1.1
2016-Jul-19 23:32N 53°31' E 009°53'0 0.0
2016-Jul-19 22:32N 53°31' E 009°53'0 0.0
2016-Jul-19 21:32N 53°31' E 009°53'0 0.0
2016-Jul-19 20:32N 53°31' E 009°53'0 0.0
2016-Jul-19 19:32N 53°31' E 009°53'0 0.0
2016-Jul-19 18:32N 53°31' E 009°53'0 0.0
2016-Jul-19 17:32N 53°31' E 009°53'0 0.0
2016-Jul-19 16:32N 53°31' E 009°53'0 0.0
2016-Jul-19 15:32N 53°31' E 009°53'0 0.0
2016-Jul-19 14:32N 53°31' E 009°53'0 0.0
2016-Jul-19 13:32N 53°31' E 009°53'0 0.0
2016-Jul-19 12:32N 53°31' E 009°53'0 0.0
2016-Jul-19 11:32N 53°31' E 009°53'0 0.0
2016-Jul-19 10:32N 53°31' E 009°53'0 0.0
2016-Jul-19 09:32N 53°31' E 009°53'0 0.0
2016-Jul-19 08:32N 53°31' E 009°53'0 0.0
2016-Jul-19 07:32N 53°31' E 009°53'0 0.0
2016-Jul-19 04:32N 53°31' E 009°53'0 0.0
2016-Jul-19 03:32N 53°31' E 009°53'0 0.0
2016-Jul-19 02:32N 53°31' E 009°53'0 0.0
2016-Jul-19 01:32N 53°31' E 009°53'0 0.0
2016-Jul-19 00:32N 53°31' E 009°53'0 0.0
2016-Jul-18 23:32N 53°31' E 009°53'0 0.0
2016-Jul-18 22:32N 53°31' E 009°53'0 0.0
2016-Jul-18 21:32N 53°31' E 009°53'0 0.0
2016-Jul-18 20:32N 53°31' E 009°53'0 0.0
2016-Jul-18 19:32N 53°31' E 009°53'0 0.0
2016-Jul-18 18:32N 53°31' E 009°53'0 0.0
2016-Jul-18 17:32N 53°31' E 009°53'0 0.0
2016-Jul-18 16:32N 53°31' E 009°53'0 0.0
2016-Jul-18 15:32N 53°31' E 009°53'0 0.0
2016-Jul-18 14:32N 53°31' E 009°53'0 0.0
2016-Jul-18 13:32N 53°31' E 009°53'0 0.0
2016-Jul-18 12:32N 53°31' E 009°53'0 0.0
2016-Jul-18 11:32N 53°31' E 009°53'0 0.0
2016-Jul-18 10:32N 53°31' E 009°53'0 0.0
2016-Jul-18 09:32N 53°31' E 009°53'0 0.0
2016-Jul-18 08:32N 53°31' E 009°53'0 0.0
2016-Jul-18 07:32N 53°31' E 009°53'0 0.0
2016-Jul-18 06:32N 53°31' E 009°53'0 0.0
2016-Jul-18 05:32N 53°31' E 009°53'0 0.0
2016-Jul-18 04:32N 53°31' E 009°53'0 0.0
2016-Jul-18 03:32N 53°31' E 009°53'0 0.0
2016-Jul-18 02:32N 53°31' E 009°53'0 0.0
2016-Jul-18 01:32N 53°31' E 009°53'0 0.0
2016-Jul-18 00:32N 53°31' E 009°53'0 0.0
2016-Jul-17 23:32N 53°31' E 009°53'0 0.0
2016-Jul-17 22:32N 53°31' E 009°53'0 0.0
2016-Jul-17 21:32N 53°31' E 009°54'0 0.0
2016-Jul-17 20:33N 53°31' E 009°53'5 5.2
2016-Jul-17 19:33N 53°34' E 009°46'1010.1
2016-Jul-17 18:33N 53°39' E 009°31'1010.1
2016-Jul-17 17:34N 53°48' E 009°23'9 9.1
2016-Jul-17 16:33N 53°53' E 009°10'8 8.3
2016-Jul-17 15:33N 53°51' E 008°56'8 8.2
2016-Jul-17 14:33N 53°52' E 008°43'9 8.6
2016-Jul-17 13:33N 53°58' E 008°32'1010.4
2016-Jul-17 12:33N 53°60' E 008°14'1111.4
2016-Jul-17 11:33N 53°58' E 007°55'1212.0
2016-Jul-17 10:33N 53°55' E 007°35'1212.1
2016-Jul-17 09:32N 53°52' E 007°15'1212.0
2016-Jul-17 08:33N 53°49' E 006°56'1212.3
2016-Jul-17 07:33N 53°46' E 006°35'1414.3
2016-Jul-17 06:34N 53°42' E 006°12'2613.2
2016-Jul-17 04:34N 53°34' E 005°30'1413.8
2016-Jul-17 03:33N 53°30' E 005°08'1514.3
2016-Jul-17 02:32N 53°24' E 004°45'1513.6
2016-Jul-17 01:28N 53°11' E 004°34'1213.2
2016-Jul-17 00:33N 53°01' E 004°24'1312.8
2016-Jul-16 23:32N 52°50' E 004°13'1212.4
2016-Jul-16 22:33N 52°39' E 004°03'1211.8
2016-Jul-16 21:34N 52°28' E 003°55'  

Dump ship's entire track history